sensor_id;sensor_type;location;lat;lon;timestamp;P1;durP1;ratioP1;P2;durP2;ratioP2
1693;SDS011;844;47.058;15.472;2022-09-09T00:00:28;1.03;;;0.70;;
1693;SDS011;844;47.058;15.472;2022-09-09T00:03:04;1.47;;;0.90;;
1693;SDS011;844;47.058;15.472;2022-09-09T00:05:42;1.63;;;0.70;;
1693;SDS011;844;47.058;15.472;2022-09-09T00:08:18;1.40;;;1.30;;
1693;SDS011;844;47.058;15.472;2022-09-09T00:10:54;1.17;;;0.80;;
1693;SDS011;844;47.058;15.472;2022-09-09T00:13:30;0.80;;;0.80;;
1693;SDS011;844;47.058;15.472;2022-09-09T00:16:10;1.23;;;0.90;;
1693;SDS011;844;47.058;15.472;2022-09-09T00:18:48;2.03;;;1.03;;
1693;SDS011;844;47.058;15.472;2022-09-09T00:21:26;1.37;;;0.70;;
1693;SDS011;844;47.058;15.472;2022-09-09T00:24:07;2.63;;;0.90;;
1693;SDS011;844;47.058;15.472;2022-09-09T00:26:42;1.33;;;0.90;;
1693;SDS011;844;47.058;15.472;2022-09-09T00:29:19;3.70;;;0.77;;
1693;SDS011;844;47.058;15.472;2022-09-09T00:31:57;4.63;;;1.50;;
1693;SDS011;844;47.058;15.472;2022-09-09T00:34:37;1.70;;;1.17;;
1693;SDS011;844;47.058;15.472;2022-09-09T00:37:15;2.40;;;1.33;;
1693;SDS011;844;47.058;15.472;2022-09-09T00:39:48;1.43;;;0.90;;
1693;SDS011;844;47.058;15.472;2022-09-09T00:42:20;0.83;;;0.67;;
1693;SDS011;844;47.058;15.472;2022-09-09T00:44:56;1.50;;;1.00;;
1693;SDS011;844;47.058;15.472;2022-09-09T00:47:34;1.03;;;0.80;;
1693;SDS011;844;47.058;15.472;2022-09-09T00:50:34;2.80;;;1.00;;
1693;SDS011;844;47.058;15.472;2022-09-09T00:53:19;1.53;;;1.23;;
1693;SDS011;844;47.058;15.472;2022-09-09T00:56:02;2.27;;;0.90;;
1693;SDS011;844;47.058;15.472;2022-09-09T00:58:42;1.20;;;0.73;;
1693;SDS011;844;47.058;15.472;2022-09-09T01:01:17;2.73;;;1.00;;
1693;SDS011;844;47.058;15.472;2022-09-09T01:03:46;1.63;;;0.70;;
1693;SDS011;844;47.058;15.472;2022-09-09T01:06:21;1.40;;;1.10;;
1693;SDS011;844;47.058;15.472;2022-09-09T01:09:01;1.40;;;1.00;;
1693;SDS011;844;47.058;15.472;2022-09-09T01:11:51;2.40;;;1.03;;
1693;SDS011;844;47.058;15.472;2022-09-09T01:14:32;1.63;;;1.00;;
1693;SDS011;844;47.058;15.472;2022-09-09T01:17:09;1.93;;;1.00;;
1693;SDS011;844;47.058;15.472;2022-09-09T01:19:47;2.50;;;0.93;;
1693;SDS011;844;47.058;15.472;2022-09-09T01:22:34;2.77;;;1.07;;
1693;SDS011;844;47.058;15.472;2022-09-09T01:25:17;1.73;;;0.97;;
1693;SDS011;844;47.058;15.472;2022-09-09T01:27:54;1.33;;;1.23;;
1693;SDS011;844;47.058;15.472;2022-09-09T01:30:27;2.30;;;0.83;;
1693;SDS011;844;47.058;15.472;2022-09-09T01:32:57;1.43;;;1.03;;
1693;SDS011;844;47.058;15.472;2022-09-09T01:35:35;3.37;;;0.93;;
1693;SDS011;844;47.058;15.472;2022-09-09T01:38:19;5.43;;;1.00;;
1693;SDS011;844;47.058;15.472;2022-09-09T01:40:49;4.20;;;1.47;;
1693;SDS011;844;47.058;15.472;2022-09-09T01:43:21;2.57;;;0.90;;
1693;SDS011;844;47.058;15.472;2022-09-09T01:45:52;3.30;;;1.27;;
1693;SDS011;844;47.058;15.472;2022-09-09T01:48:24;3.23;;;1.27;;
1693;SDS011;844;47.058;15.472;2022-09-09T01:50:55;1.90;;;1.03;;
1693;SDS011;844;47.058;15.472;2022-09-09T01:53:34;2.07;;;0.77;;
1693;SDS011;844;47.058;15.472;2022-09-09T01:56:10;1.27;;;0.83;;
1693;SDS011;844;47.058;15.472;2022-09-09T01:58:55;2.30;;;0.90;;
1693;SDS011;844;47.058;15.472;2022-09-09T02:01:38;0.90;;;0.80;;
1693;SDS011;844;47.058;15.472;2022-09-09T02:04:24;1.87;;;1.10;;
1693;SDS011;844;47.058;15.472;2022-09-09T02:10:10;2.80;;;1.00;;
1693;SDS011;844;47.058;15.472;2022-09-09T02:12:48;1.03;;;0.93;;
1693;SDS011;844;47.058;15.472;2022-09-09T02:15:26;2.00;;;1.13;;
1693;SDS011;844;47.058;15.472;2022-09-09T02:18:03;2.20;;;0.97;;
1693;SDS011;844;47.058;15.472;2022-09-09T02:20:39;1.23;;;1.03;;
1693;SDS011;844;47.058;15.472;2022-09-09T02:23:09;4.40;;;1.23;;
1693;SDS011;844;47.058;15.472;2022-09-09T02:25:40;3.53;;;0.93;;
1693;SDS011;844;47.058;15.472;2022-09-09T02:28:11;2.40;;;1.10;;
1693;SDS011;844;47.058;15.472;2022-09-09T02:30:44;2.30;;;1.20;;
1693;SDS011;844;47.058;15.472;2022-09-09T02:33:15;2.10;;;1.10;;
1693;SDS011;844;47.058;15.472;2022-09-09T02:35:44;1.83;;;0.90;;
1693;SDS011;844;47.058;15.472;2022-09-09T02:38:14;3.40;;;1.20;;
1693;SDS011;844;47.058;15.472;2022-09-09T02:40:48;1.40;;;1.10;;
1693;SDS011;844;47.058;15.472;2022-09-09T02:43:18;2.33;;;1.07;;
1693;SDS011;844;47.058;15.472;2022-09-09T02:45:50;2.00;;;1.30;;
1693;SDS011;844;47.058;15.472;2022-09-09T02:48:33;2.60;;;1.20;;
1693;SDS011;844;47.058;15.472;2022-09-09T02:51:15;0.97;;;0.90;;
1693;SDS011;844;47.058;15.472;2022-09-09T02:53:54;2.63;;;1.83;;
1693;SDS011;844;47.058;15.472;2022-09-09T02:56:30;1.87;;;1.30;;
1693;SDS011;844;47.058;15.472;2022-09-09T02:59:08;2.20;;;1.73;;
1693;SDS011;844;47.058;15.472;2022-09-09T03:01:40;2.67;;;1.30;;
1693;SDS011;844;47.058;15.472;2022-09-09T03:04:08;4.50;;;1.40;;
1693;SDS011;844;47.058;15.472;2022-09-09T03:06:38;5.93;;;1.67;;
1693;SDS011;844;47.058;15.472;2022-09-09T03:09:07;1.83;;;1.37;;
1693;SDS011;844;47.058;15.472;2022-09-09T03:11:38;2.10;;;1.67;;
1693;SDS011;844;47.058;15.472;2022-09-09T03:14:16;1.50;;;1.30;;
1693;SDS011;844;47.058;15.472;2022-09-09T03:16:57;1.30;;;1.10;;
1693;SDS011;844;47.058;15.472;2022-09-09T03:20:22;1.83;;;1.23;;
1693;SDS011;844;47.058;15.472;2022-09-09T03:22:52;1.37;;;1.20;;
1693;SDS011;844;47.058;15.472;2022-09-09T03:25:22;3.40;;;1.57;;
1693;SDS011;844;47.058;15.472;2022-09-09T03:27:53;2.80;;;1.30;;
1693;SDS011;844;47.058;15.472;2022-09-09T03:30:23;2.13;;;1.93;;
1693;SDS011;844;47.058;15.472;2022-09-09T03:32:55;2.10;;;1.30;;
1693;SDS011;844;47.058;15.472;2022-09-09T03:39:11;2.57;;;1.80;;
1693;SDS011;844;47.058;15.472;2022-09-09T03:42:11;1.80;;;1.57;;
1693;SDS011;844;47.058;15.472;2022-09-09T03:45:13;4.13;;;2.13;;
1693;SDS011;844;47.058;15.472;2022-09-09T03:48:19;1.93;;;1.43;;
1693;SDS011;844;47.058;15.472;2022-09-09T03:51:43;2.03;;;1.77;;
1693;SDS011;844;47.058;15.472;2022-09-09T03:54:58;5.10;;;2.10;;
1693;SDS011;844;47.058;15.472;2022-09-09T03:58:34;1.77;;;1.60;;
1693;SDS011;844;47.058;15.472;2022-09-09T04:01:37;4.47;;;2.50;;
1693;SDS011;844;47.058;15.472;2022-09-09T04:04:41;2.53;;;1.73;;
1693;SDS011;844;47.058;15.472;2022-09-09T04:07:37;2.90;;;1.80;;
1693;SDS011;844;47.058;15.472;2022-09-09T04:10:31;2.27;;;2.03;;
1693;SDS011;844;47.058;15.472;2022-09-09T04:13:50;3.87;;;2.30;;
1693;SDS011;844;47.058;15.472;2022-09-09T04:16:43;2.40;;;2.20;;
1693;SDS011;844;47.058;15.472;2022-09-09T04:19:36;2.80;;;2.20;;
1693;SDS011;844;47.058;15.472;2022-09-09T04:22:41;2.70;;;2.50;;
1693;SDS011;844;47.058;15.472;2022-09-09T04:25:52;2.27;;;1.87;;
1693;SDS011;844;47.058;15.472;2022-09-09T04:28:49;3.60;;;2.40;;
1693;SDS011;844;47.058;15.472;2022-09-09T04:31:32;2.23;;;1.70;;
1693;SDS011;844;47.058;15.472;2022-09-09T04:34:15;2.17;;;2.07;;
1693;SDS011;844;47.058;15.472;2022-09-09T04:37:19;2.10;;;2.00;;
1693;SDS011;844;47.058;15.472;2022-09-09T04:40:11;1.70;;;1.60;;
1693;SDS011;844;47.058;15.472;2022-09-09T04:43:06;2.77;;;2.00;;
1693;SDS011;844;47.058;15.472;2022-09-09T04:45:53;2.13;;;1.93;;
1693;SDS011;844;47.058;15.472;2022-09-09T04:48:38;2.97;;;1.83;;
1693;SDS011;844;47.058;15.472;2022-09-09T04:51:32;3.13;;;2.20;;
1693;SDS011;844;47.058;15.472;2022-09-09T04:54:20;6.00;;;2.07;;
1693;SDS011;844;47.058;15.472;2022-09-09T05:00:45;2.63;;;2.43;;
1693;SDS011;844;47.058;15.472;2022-09-09T05:03:54;2.63;;;2.20;;
1693;SDS011;844;47.058;15.472;2022-09-09T05:06:47;3.00;;;2.23;;
1693;SDS011;844;47.058;15.472;2022-09-09T05:09:38;3.37;;;2.27;;
1693;SDS011;844;47.058;15.472;2022-09-09T05:12:16;2.00;;;1.90;;
1693;SDS011;844;47.058;15.472;2022-09-09T05:15:03;2.80;;;1.90;;
1693;SDS011;844;47.058;15.472;2022-09-09T05:17:56;3.53;;;2.23;;
1693;SDS011;844;47.058;15.472;2022-09-09T05:20:56;2.03;;;1.80;;
1693;SDS011;844;47.058;15.472;2022-09-09T05:27:08;2.43;;;2.23;;
1693;SDS011;844;47.058;15.472;2022-09-09T05:30:07;1.83;;;1.70;;
1693;SDS011;844;47.058;15.472;2022-09-09T05:33:01;2.57;;;2.33;;
1693;SDS011;844;47.058;15.472;2022-09-09T05:35:45;3.07;;;1.97;;
1693;SDS011;844;47.058;15.472;2022-09-09T12:20:23;2.10;;;2.00;;
1693;SDS011;844;47.058;15.472;2022-09-09T12:26:12;2.35;;;2.15;;
1693;SDS011;844;47.058;15.472;2022-09-09T12:28:56;1.80;;;1.70;;
1693;SDS011;844;47.058;15.472;2022-09-09T12:31:35;2.13;;;1.80;;
1693;SDS011;844;47.058;15.472;2022-09-09T12:34:13;2.53;;;2.13;;
1693;SDS011;844;47.058;15.472;2022-09-09T12:36:48;1.60;;;1.50;;
1693;SDS011;844;47.058;15.472;2022-09-09T12:39:24;2.03;;;1.93;;
1693;SDS011;844;47.058;15.472;2022-09-09T12:42:01;1.60;;;1.50;;
1693;SDS011;844;47.058;15.472;2022-09-09T12:44:30;2.40;;;2.20;;
1693;SDS011;844;47.058;15.472;2022-09-09T12:47:00;1.97;;;1.87;;
1693;SDS011;844;47.058;15.472;2022-09-09T12:49:32;1.83;;;1.73;;
1693;SDS011;844;47.058;15.472;2022-09-09T12:52:08;2.37;;;1.90;;
1693;SDS011;844;47.058;15.472;2022-09-09T12:54:44;2.10;;;1.90;;
1693;SDS011;844;47.058;15.472;2022-09-09T12:57:15;3.00;;;1.70;;
1693;SDS011;844;47.058;15.472;2022-09-09T12:59:45;1.97;;;1.77;;
1693;SDS011;844;47.058;15.472;2022-09-09T13:02:17;1.93;;;1.73;;
1693;SDS011;844;47.058;15.472;2022-09-09T13:04:49;2.70;;;1.93;;
1693;SDS011;844;47.058;15.472;2022-09-09T13:07:21;2.17;;;1.93;;
1693;SDS011;844;47.058;15.472;2022-09-09T13:09:52;1.77;;;1.63;;
1693;SDS011;844;47.058;15.472;2022-09-09T13:12:21;1.70;;;1.60;;
1693;SDS011;844;47.058;15.472;2022-09-09T13:14:52;1.90;;;1.50;;
1693;SDS011;844;47.058;15.472;2022-09-09T13:17:29;4.57;;;1.70;;
1693;SDS011;844;47.058;15.472;2022-09-09T13:20:01;2.00;;;1.80;;
1693;SDS011;844;47.058;15.472;2022-09-09T13:22:35;2.00;;;1.70;;
1693;SDS011;844;47.058;15.472;2022-09-09T13:25:17;1.70;;;1.57;;
1693;SDS011;844;47.058;15.472;2022-09-09T13:27:53;2.13;;;1.93;;
1693;SDS011;844;47.058;15.472;2022-09-09T13:30:29;1.93;;;1.83;;
1693;SDS011;844;47.058;15.472;2022-09-09T13:33:20;1.40;;;1.30;;
1693;SDS011;844;47.058;15.472;2022-09-09T13:35:53;2.20;;;2.10;;
1693;SDS011;844;47.058;15.472;2022-09-09T13:38:25;1.93;;;1.63;;
1693;SDS011;844;47.058;15.472;2022-09-09T13:40:59;1.60;;;1.27;;
1693;SDS011;844;47.058;15.472;2022-09-09T13:47:33;1.50;;;1.40;;
1693;SDS011;844;47.058;15.472;2022-09-09T13:50:22;1.50;;;1.40;;
1693;SDS011;844;47.058;15.472;2022-09-09T13:53:08;1.57;;;1.47;;
1693;SDS011;844;47.058;15.472;2022-09-09T13:55:54;1.80;;;1.50;;
1693;SDS011;844;47.058;15.472;2022-09-09T13:58:26;1.70;;;1.47;;
1693;SDS011;844;47.058;15.472;2022-09-09T14:01:25;2.47;;;1.83;;
1693;SDS011;844;47.058;15.472;2022-09-09T14:04:16;1.40;;;1.30;;
1693;SDS011;844;47.058;15.472;2022-09-09T14:15:09;2.50;;;2.30;;
1693;SDS011;844;47.058;15.472;2022-09-09T14:18:08;1.93;;;1.80;;
1693;SDS011;844;47.058;15.472;2022-09-09T14:21:03;2.27;;;1.90;;
1693;SDS011;844;47.058;15.472;2022-09-09T14:23:32;1.80;;;1.70;;
1693;SDS011;844;47.058;15.472;2022-09-09T14:26:12;1.90;;;1.70;;
1693;SDS011;844;47.058;15.472;2022-09-09T14:28:41;2.53;;;2.33;;
1693;SDS011;844;47.058;15.472;2022-09-09T14:31:23;3.00;;;1.93;;
1693;SDS011;844;47.058;15.472;2022-09-09T14:33:53;1.93;;;1.73;;
1693;SDS011;844;47.058;15.472;2022-09-09T14:36:22;2.70;;;2.03;;
1693;SDS011;844;47.058;15.472;2022-09-09T14:38:51;3.07;;;2.77;;
1693;SDS011;844;47.058;15.472;2022-09-09T14:41:21;2.67;;;2.43;;
1693;SDS011;844;47.058;15.472;2022-09-09T14:43:51;2.77;;;2.57;;
1693;SDS011;844;47.058;15.472;2022-09-09T14:46:20;3.30;;;2.70;;
1693;SDS011;844;47.058;15.472;2022-09-09T14:48:51;3.63;;;3.33;;
1693;SDS011;844;47.058;15.472;2022-09-09T14:51:22;3.90;;;2.40;;
1693;SDS011;844;47.058;15.472;2022-09-09T14:53:54;2.83;;;2.63;;
1693;SDS011;844;47.058;15.472;2022-09-09T14:56:26;3.97;;;3.50;;
1693;SDS011;844;47.058;15.472;2022-09-09T14:58:59;2.80;;;2.47;;
1693;SDS011;844;47.058;15.472;2022-09-09T15:01:30;3.33;;;2.67;;
1693;SDS011;844;47.058;15.472;2022-09-09T15:04:01;2.43;;;2.23;;
1693;SDS011;844;47.058;15.472;2022-09-09T15:06:33;2.97;;;2.43;;
1693;SDS011;844;47.058;15.472;2022-09-09T15:09:05;3.10;;;2.90;;
1693;SDS011;844;47.058;15.472;2022-09-09T15:11:34;3.00;;;2.70;;
1693;SDS011;844;47.058;15.472;2022-09-09T15:14:05;2.90;;;2.20;;
1693;SDS011;844;47.058;15.472;2022-09-09T15:16:38;4.80;;;2.53;;
1693;SDS011;844;47.058;15.472;2022-09-09T15:19:08;3.13;;;2.63;;
1693;SDS011;844;47.058;15.472;2022-09-09T15:21:38;3.50;;;2.60;;
1693;SDS011;844;47.058;15.472;2022-09-09T15:24:09;4.67;;;3.33;;
1693;SDS011;844;47.058;15.472;2022-09-09T15:26:40;3.20;;;3.00;;
1693;SDS011;844;47.058;15.472;2022-09-09T15:29:13;3.70;;;3.30;;
1693;SDS011;844;47.058;15.472;2022-09-09T15:31:44;5.50;;;3.00;;
1693;SDS011;844;47.058;15.472;2022-09-09T15:34:18;4.63;;;3.17;;
1693;SDS011;844;47.058;15.472;2022-09-09T15:36:53;4.43;;;2.90;;
1693;SDS011;844;47.058;15.472;2022-09-09T15:39:23;3.43;;;3.13;;
1693;SDS011;844;47.058;15.472;2022-09-09T15:41:55;2.80;;;2.60;;
1693;SDS011;844;47.058;15.472;2022-09-09T15:44:28;3.77;;;2.93;;
1693;SDS011;844;47.058;15.472;2022-09-09T15:47:01;2.70;;;2.50;;
1693;SDS011;844;47.058;15.472;2022-09-09T15:49:32;3.50;;;2.63;;
1693;SDS011;844;47.058;15.472;2022-09-09T15:52:00;3.47;;;3.17;;
1693;SDS011;844;47.058;15.472;2022-09-09T15:54:31;2.27;;;2.07;;
1693;SDS011;844;47.058;15.472;2022-09-09T15:57:03;2.90;;;2.67;;
1693;SDS011;844;47.058;15.472;2022-09-09T15:59:33;3.30;;;2.63;;
1693;SDS011;844;47.058;15.472;2022-09-09T16:02:12;4.20;;;3.40;;
1693;SDS011;844;47.058;15.472;2022-09-09T16:04:48;2.73;;;2.53;;
1693;SDS011;844;47.058;15.472;2022-09-09T16:07:17;3.33;;;2.40;;
1693;SDS011;844;47.058;15.472;2022-09-09T16:09:47;3.50;;;2.30;;
1693;SDS011;844;47.058;15.472;2022-09-09T16:12:17;3.43;;;2.10;;
1693;SDS011;844;47.058;15.472;2022-09-09T16:14:46;2.70;;;2.50;;
1693;SDS011;844;47.058;15.472;2022-09-09T16:17:17;2.53;;;2.33;;
1693;SDS011;844;47.058;15.472;2022-09-09T16:19:47;2.50;;;2.20;;
1693;SDS011;844;47.058;15.472;2022-09-09T16:22:16;2.40;;;2.20;;
1693;SDS011;844;47.058;15.472;2022-09-09T16:24:45;2.70;;;2.50;;
1693;SDS011;844;47.058;15.472;2022-09-09T16:27:14;2.70;;;2.43;;
1693;SDS011;844;47.058;15.472;2022-09-09T16:29:43;2.30;;;2.10;;
1693;SDS011;844;47.058;15.472;2022-09-09T16:32:12;2.57;;;2.37;;
1693;SDS011;844;47.058;15.472;2022-09-09T16:34:42;2.17;;;1.97;;
1693;SDS011;844;47.058;15.472;2022-09-09T16:37:12;2.70;;;2.50;;
1693;SDS011;844;47.058;15.472;2022-09-09T16:39:41;2.27;;;2.07;;
1693;SDS011;844;47.058;15.472;2022-09-09T16:42:10;3.07;;;2.30;;
1693;SDS011;844;47.058;15.472;2022-09-09T16:44:39;2.10;;;1.90;;
1693;SDS011;844;47.058;15.472;2022-09-09T16:47:08;2.70;;;2.10;;
1693;SDS011;844;47.058;15.472;2022-09-09T16:49:37;2.70;;;2.27;;
1693;SDS011;844;47.058;15.472;2022-09-09T16:52:07;3.03;;;2.33;;
1693;SDS011;844;47.058;15.472;2022-09-09T16:54:36;2.40;;;2.20;;
1693;SDS011;844;47.058;15.472;2022-09-09T16:57:05;5.10;;;2.30;;
1693;SDS011;844;47.058;15.472;2022-09-09T16:59:34;2.37;;;2.17;;
1693;SDS011;844;47.058;15.472;2022-09-09T17:02:05;3.10;;;2.80;;
1693;SDS011;844;47.058;15.472;2022-09-09T17:04:35;3.10;;;2.80;;
1693;SDS011;844;47.058;15.472;2022-09-09T17:07:09;2.90;;;2.40;;
1693;SDS011;844;47.058;15.472;2022-09-09T17:09:38;2.77;;;2.57;;
1693;SDS011;844;47.058;15.472;2022-09-09T17:12:07;2.57;;;2.37;;
1693;SDS011;844;47.058;15.472;2022-09-09T17:14:39;4.17;;;2.77;;
1693;SDS011;844;47.058;15.472;2022-09-09T17:17:07;6.30;;;2.50;;
1693;SDS011;844;47.058;15.472;2022-09-09T17:19:56;3.60;;;2.63;;
1693;SDS011;844;47.058;15.472;2022-09-09T17:22:27;2.70;;;2.50;;
1693;SDS011;844;47.058;15.472;2022-09-09T17:24:56;7.73;;;3.03;;
1693;SDS011;844;47.058;15.472;2022-09-09T17:27:25;3.90;;;2.70;;
1693;SDS011;844;47.058;15.472;2022-09-09T17:29:54;2.80;;;2.60;;
1693;SDS011;844;47.058;15.472;2022-09-09T17:32:26;3.80;;;3.50;;
1693;SDS011;844;47.058;15.472;2022-09-09T17:34:56;2.90;;;2.43;;
1693;SDS011;844;47.058;15.472;2022-09-09T17:37:25;3.10;;;2.80;;
1693;SDS011;844;47.058;15.472;2022-09-09T17:39:55;2.50;;;2.30;;
1693;SDS011;844;47.058;15.472;2022-09-09T17:42:25;2.87;;;2.20;;
1693;SDS011;844;47.058;15.472;2022-09-09T17:44:54;3.67;;;3.30;;
1693;SDS011;844;47.058;15.472;2022-09-09T17:47:23;3.40;;;3.10;;
1693;SDS011;844;47.058;15.472;2022-09-09T17:49:52;3.47;;;3.17;;
1693;SDS011;844;47.058;15.472;2022-09-09T17:52:21;4.93;;;3.33;;
1693;SDS011;844;47.058;15.472;2022-09-09T17:54:50;2.80;;;2.43;;
1693;SDS011;844;47.058;15.472;2022-09-09T17:57:22;3.47;;;3.10;;
1693;SDS011;844;47.058;15.472;2022-09-09T17:59:51;3.67;;;2.80;;
1693;SDS011;844;47.058;15.472;2022-09-09T18:02:20;3.60;;;2.97;;
1693;SDS011;844;47.058;15.472;2022-09-09T18:04:49;2.77;;;2.57;;
1693;SDS011;844;47.058;15.472;2022-09-09T18:07:18;3.53;;;3.00;;
1693;SDS011;844;47.058;15.472;2022-09-09T18:09:47;3.90;;;3.30;;
1693;SDS011;844;47.058;15.472;2022-09-09T18:12:17;4.43;;;2.83;;
1693;SDS011;844;47.058;15.472;2022-09-09T18:14:47;2.53;;;2.33;;
1693;SDS011;844;47.058;15.472;2022-09-09T18:17:20;3.13;;;2.93;;
1693;SDS011;844;47.058;15.472;2022-09-09T18:19:50;3.40;;;3.10;;
1693;SDS011;844;47.058;15.472;2022-09-09T18:22:20;2.80;;;2.60;;
1693;SDS011;844;47.058;15.472;2022-09-09T18:24:52;3.00;;;2.77;;
1693;SDS011;844;47.058;15.472;2022-09-09T18:27:21;3.30;;;3.00;;
1693;SDS011;844;47.058;15.472;2022-09-09T18:29:51;4.50;;;2.90;;
1693;SDS011;844;47.058;15.472;2022-09-09T18:32:21;3.30;;;2.73;;
1693;SDS011;844;47.058;15.472;2022-09-09T18:34:50;3.00;;;2.57;;
1693;SDS011;844;47.058;15.472;2022-09-09T18:37:21;3.27;;;2.77;;
1693;SDS011;844;47.058;15.472;2022-09-09T18:39:50;4.30;;;2.90;;
1693;SDS011;844;47.058;15.472;2022-09-09T18:42:20;2.73;;;2.53;;
1693;SDS011;844;47.058;15.472;2022-09-09T18:44:49;5.30;;;2.60;;
1693;SDS011;844;47.058;15.472;2022-09-09T18:47:20;3.23;;;2.63;;
1693;SDS011;844;47.058;15.472;2022-09-09T18:49:50;2.90;;;2.70;;
1693;SDS011;844;47.058;15.472;2022-09-09T18:52:20;3.70;;;2.80;;
1693;SDS011;844;47.058;15.472;2022-09-09T18:54:51;3.20;;;2.40;;
1693;SDS011;844;47.058;15.472;2022-09-09T18:57:20;2.83;;;2.63;;
1693;SDS011;844;47.058;15.472;2022-09-09T18:59:49;3.60;;;2.70;;
1693;SDS011;844;47.058;15.472;2022-09-09T19:02:21;3.20;;;2.93;;
1693;SDS011;844;47.058;15.472;2022-09-09T19:04:52;2.80;;;2.53;;
1693;SDS011;844;47.058;15.472;2022-09-09T19:07:25;2.67;;;2.03;;
1693;SDS011;844;47.058;15.472;2022-09-09T19:09:58;2.97;;;2.67;;
1693;SDS011;844;47.058;15.472;2022-09-09T19:12:28;3.17;;;2.60;;
1693;SDS011;844;47.058;15.472;2022-09-09T19:15:03;2.60;;;2.33;;
1693;SDS011;844;47.058;15.472;2022-09-09T19:17:37;2.30;;;2.10;;
1693;SDS011;844;47.058;15.472;2022-09-09T19:20:07;6.30;;;3.23;;
1693;SDS011;844;47.058;15.472;2022-09-09T19:22:38;4.40;;;4.00;;
1693;SDS011;844;47.058;15.472;2022-09-09T19:25:08;3.90;;;3.50;;
1693;SDS011;844;47.058;15.472;2022-09-09T19:27:37;4.37;;;3.00;;
1693;SDS011;844;47.058;15.472;2022-09-09T19:30:09;3.33;;;2.80;;
1693;SDS011;844;47.058;15.472;2022-09-09T19:32:40;6.20;;;3.57;;
1693;SDS011;844;47.058;15.472;2022-09-09T19:35:20;3.03;;;2.43;;
1693;SDS011;844;47.058;15.472;2022-09-09T19:37:51;3.67;;;3.37;;
1693;SDS011;844;47.058;15.472;2022-09-09T19:40:24;3.47;;;3.10;;
1693;SDS011;844;47.058;15.472;2022-09-09T19:42:53;3.30;;;3.00;;
1693;SDS011;844;47.058;15.472;2022-09-09T19:45:24;7.67;;;4.10;;
1693;SDS011;844;47.058;15.472;2022-09-09T19:47:55;6.93;;;4.10;;
1693;SDS011;844;47.058;15.472;2022-09-09T19:50:25;5.57;;;3.93;;
1693;SDS011;844;47.058;15.472;2022-09-09T19:52:54;3.80;;;3.40;;
1693;SDS011;844;47.058;15.472;2022-09-09T19:55:29;5.33;;;4.83;;
1693;SDS011;844;47.058;15.472;2022-09-09T19:57:58;5.87;;;4.20;;
1693;SDS011;844;47.058;15.472;2022-09-09T20:00:29;3.87;;;3.47;;
1693;SDS011;844;47.058;15.472;2022-09-09T20:03:08;4.60;;;3.87;;
1693;SDS011;844;47.058;15.472;2022-09-09T20:05:46;4.97;;;3.27;;
1693;SDS011;844;47.058;15.472;2022-09-09T20:08:19;8.63;;;4.87;;
1693;SDS011;844;47.058;15.472;2022-09-09T20:10:50;4.27;;;3.87;;
1693;SDS011;844;47.058;15.472;2022-09-09T20:13:20;4.43;;;3.60;;
1693;SDS011;844;47.058;15.472;2022-09-09T20:15:56;5.23;;;4.13;;
1693;SDS011;844;47.058;15.472;2022-09-09T20:18:31;7.23;;;4.67;;
1693;SDS011;844;47.058;15.472;2022-09-09T20:21:07;5.67;;;4.57;;
1693;SDS011;844;47.058;15.472;2022-09-09T20:23:39;4.23;;;3.83;;
1693;SDS011;844;47.058;15.472;2022-09-09T20:26:10;5.07;;;4.67;;
1693;SDS011;844;47.058;15.472;2022-09-09T20:28:43;3.97;;;3.37;;
1693;SDS011;844;47.058;15.472;2022-09-09T20:31:15;5.90;;;4.20;;
1693;SDS011;844;47.058;15.472;2022-09-09T20:33:48;8.60;;;4.07;;
1693;SDS011;844;47.058;15.472;2022-09-09T20:36:19;5.63;;;3.77;;
1693;SDS011;844;47.058;15.472;2022-09-09T20:38:52;5.00;;;4.33;;
1693;SDS011;844;47.058;15.472;2022-09-09T20:41:26;5.13;;;3.87;;
1693;SDS011;844;47.058;15.472;2022-09-09T20:43:57;5.53;;;3.87;;
1693;SDS011;844;47.058;15.472;2022-09-09T20:46:31;4.30;;;3.93;;
1693;SDS011;844;47.058;15.472;2022-09-09T20:49:02;3.90;;;3.60;;
1693;SDS011;844;47.058;15.472;2022-09-09T20:51:33;4.33;;;3.40;;
1693;SDS011;844;47.058;15.472;2022-09-09T20:54:04;4.70;;;3.83;;
1693;SDS011;844;47.058;15.472;2022-09-09T20:56:35;4.17;;;3.87;;
1693;SDS011;844;47.058;15.472;2022-09-09T20:59:11;3.97;;;3.50;;
1693;SDS011;844;47.058;15.472;2022-09-09T21:01:45;6.40;;;4.10;;
1693;SDS011;844;47.058;15.472;2022-09-09T21:04:16;5.67;;;3.13;;
1693;SDS011;844;47.058;15.472;2022-09-09T21:06:49;4.93;;;3.30;;
1693;SDS011;844;47.058;15.472;2022-09-09T21:09:24;4.23;;;3.17;;
1693;SDS011;844;47.058;15.472;2022-09-09T21:11:57;4.73;;;3.33;;
1693;SDS011;844;47.058;15.472;2022-09-09T21:14:29;3.70;;;3.50;;
1693;SDS011;844;47.058;15.472;2022-09-09T21:17:07;5.10;;;3.80;;
1693;SDS011;844;47.058;15.472;2022-09-09T21:20:00;4.10;;;3.70;;
1693;SDS011;844;47.058;15.472;2022-09-09T21:22:55;4.07;;;3.67;;
1693;SDS011;844;47.058;15.472;2022-09-09T21:25:25;4.07;;;3.40;;
1693;SDS011;844;47.058;15.472;2022-09-09T21:27:54;4.57;;;3.53;;
1693;SDS011;844;47.058;15.472;2022-09-09T21:30:25;4.63;;;4.23;;
1693;SDS011;844;47.058;15.472;2022-09-09T21:33:09;4.20;;;3.53;;
1693;SDS011;844;47.058;15.472;2022-09-09T21:35:40;5.00;;;3.50;;
1693;SDS011;844;47.058;15.472;2022-09-09T21:38:10;4.37;;;3.83;;
1693;SDS011;844;47.058;15.472;2022-09-09T21:40:43;4.43;;;3.13;;
1693;SDS011;844;47.058;15.472;2022-09-09T21:43:22;3.30;;;3.10;;
1693;SDS011;844;47.058;15.472;2022-09-09T21:45:52;3.37;;;3.17;;
1693;SDS011;844;47.058;15.472;2022-09-09T21:48:24;3.50;;;3.20;;
1693;SDS011;844;47.058;15.472;2022-09-09T21:51:00;3.80;;;3.50;;
1693;SDS011;844;47.058;15.472;2022-09-09T21:53:37;3.20;;;2.90;;
1693;SDS011;844;47.058;15.472;2022-09-09T21:56:07;3.67;;;3.37;;
1693;SDS011;844;47.058;15.472;2022-09-09T21:58:40;3.57;;;3.27;;
1693;SDS011;844;47.058;15.472;2022-09-09T22:01:09;3.57;;;3.23;;
1693;SDS011;844;47.058;15.472;2022-09-09T22:03:42;3.07;;;2.87;;
1693;SDS011;844;47.058;15.472;2022-09-09T22:06:12;3.43;;;3.13;;
1693;SDS011;844;47.058;15.472;2022-09-09T22:08:44;5.90;;;3.53;;
1693;SDS011;844;47.058;15.472;2022-09-09T22:11:14;3.23;;;2.93;;
1693;SDS011;844;47.058;15.472;2022-09-09T22:13:45;2.63;;;2.43;;
1693;SDS011;844;47.058;15.472;2022-09-09T22:16:15;3.03;;;2.83;;
1693;SDS011;844;47.058;15.472;2022-09-09T22:18:50;3.30;;;3.00;;
1693;SDS011;844;47.058;15.472;2022-09-09T22:21:23;2.97;;;2.67;;
1693;SDS011;844;47.058;15.472;2022-09-09T22:23:54;3.03;;;2.63;;
1693;SDS011;844;47.058;15.472;2022-09-09T22:26:26;3.80;;;3.20;;
1693;SDS011;844;47.058;15.472;2022-09-09T22:28:57;3.30;;;3.00;;
1693;SDS011;844;47.058;15.472;2022-09-09T22:31:27;2.53;;;2.33;;
1693;SDS011;844;47.058;15.472;2022-09-09T22:34:01;6.73;;;2.57;;
1693;SDS011;844;47.058;15.472;2022-09-09T22:36:37;4.40;;;3.50;;
1693;SDS011;844;47.058;15.472;2022-09-09T22:39:06;2.77;;;2.57;;
1693;SDS011;844;47.058;15.472;2022-09-09T22:41:36;3.30;;;3.10;;
1693;SDS011;844;47.058;15.472;2022-09-09T22:44:06;2.80;;;2.60;;
1693;SDS011;844;47.058;15.472;2022-09-09T22:46:36;3.33;;;3.03;;
1693;SDS011;844;47.058;15.472;2022-09-09T22:49:07;2.60;;;2.40;;
1693;SDS011;844;47.058;15.472;2022-09-09T22:51:37;3.20;;;2.90;;
1693;SDS011;844;47.058;15.472;2022-09-09T22:54:06;4.57;;;3.30;;
1693;SDS011;844;47.058;15.472;2022-09-09T22:56:39;3.07;;;2.83;;
1693;SDS011;844;47.058;15.472;2022-09-09T22:59:11;3.00;;;2.80;;
1693;SDS011;844;47.058;15.472;2022-09-09T23:01:41;3.53;;;3.20;;
1693;SDS011;844;47.058;15.472;2022-09-09T23:04:14;3.70;;;3.40;;
1693;SDS011;844;47.058;15.472;2022-09-09T23:06:44;3.57;;;3.33;;
1693;SDS011;844;47.058;15.472;2022-09-09T23:09:14;4.40;;;3.00;;
1693;SDS011;844;47.058;15.472;2022-09-09T23:11:48;3.17;;;2.87;;
1693;SDS011;844;47.058;15.472;2022-09-09T23:14:17;3.90;;;3.40;;
1693;SDS011;844;47.058;15.472;2022-09-09T23:16:47;3.00;;;2.80;;
1693;SDS011;844;47.058;15.472;2022-09-09T23:19:20;2.57;;;2.23;;